Aeroporto :
LOGIN :

Iscrizione | Disclaimer

   EN    FR    IT 

 










Sommario :    VFR   VFR Marginale   IFR   IFR Intensivo   IFR Molto Intensivo
Visibilità : 
Base nubi : 
>= 8 km
>= 3000ft
5 / 8 km
1000 / 3000 ft
1500m / 5 km
500 / 1000 ft
800 / 1500m
200 / 500 ft
< 800m
< 200 ft
Simboli :   Temporali  Nebbia  Neve Forte  Precipitazioni Forti  Vento > 20 kt
SIGMETs :   Varie  Temporali  Ghiacco  Turbolenza  Onda orograficha  Ceneri Vulcaniche






- Altitudine del aeroporto : 25 ft
- Codice IATA : QCY


EGXC - RAF Coningsby

ULTIMO METAR :
  • 170450Z 13004KT 5000 BR FEW042 BKN230 11/10 Q1013 RMK WHT

METARs OBSOLETI :
  • 170350Z 14002KT 6000 BR SCT048 SCT230 11/10 Q1013 RMK WHT
  • 170250Z 14003KT 7000 BR FEW048 SCT250 11/10 Q1014 RMK WHT

TAF TAF EGXC
Valido dal 17 a 06 ore il 18 a 00 ore UTC


170445Z 1706/1724 14003KT 7000 BR FEW045
BECMG 1706/1709 9999 NSW
PROB30 1706/1707 2000 BR MIFG
PROB30
TEMPO 1706/1710 SCT007
PROB40
TEMPO 1710/1713 SCT016



MetMap, La meteo Aeronautica in un colpo d'occhio ! - Copyright ORBIFLY Dicembre 2007 - Disclaimer

ORBIFLY MET'MAP TEAM :

Programmazione e sviluppo : Alexandra Zaïnal
Concezione : Baudouin d'Aumeries
Aiuto per la programmazione : Marc-Olivier Méhu
Supporto tecnico e logistico : Manuel Goepfert
Aiuto per la traduzione : Arnaldo La Scala

Contatto : metmap@orbifly.com




FONTI E CREDITI :

   NOAA